• Join FlightAware (Why Join?)
  • Login
  • US Flag 
01:05PM EDT


 

Airport Tracker/Info


-or-


 

Live Flight TrackerFlight Track Log ✈ N502QS ✈ 01-Jul-2013 ✈ NTAA / PPT - KBFI

Flight Track Log - Related Links

Times and Time Zones

All times are in EDT time to prevent confusion due to time zone crossing. See the N502QS flight status page for this flight to view local times or setup timezone preferences in your user account.

Time Position Orientation Groundspeed Altitude Reporting Facility
EDT Latitude Longitude Course Direction KTS MPH feet Rate Location/Type
06:15PM -1.6014 -144.1085 19° North  Level Estimated
06:16PM -1.4764 -144.0670 18° North  Level Estimated
06:17PM -1.3514 -144.0254 18° North  Level Estimated
06:18PM -1.2264 -143.9839 18° North  Level Estimated
06:19PM -1.1014 -143.9423 18° North  Level Estimated
06:20PM -0.9764 -143.9008 18° North  Level Estimated
06:21PM -0.8514 -143.8593 18° North  Level Estimated
06:22PM -0.7264 -143.8177 18° North  Level Estimated
06:23PM -0.6014 -143.7762 18° North  Level Estimated
06:24PM -0.4764 -143.7347 18° North  Level Estimated
06:25PM -0.3514 -143.6932 18° North  Level Estimated
06:26PM -0.2264 -143.6517 18° North  Level Estimated
06:27PM -0.1014 -143.6102 18° North  Level Estimated
06:28PM 0.0236 -143.5686 18° North  Level Estimated
06:29PM 0.1486 -143.5271 18° North  Level Estimated
06:30PM 0.2736 -143.4856 18° North  Level Estimated
06:31PM 0.3986 -143.4441 18° North  Level Estimated
06:32PM 0.5236 -143.4026 18° North  Level Estimated
06:33PM 0.6486 -143.3610 18° North  Level Estimated
06:34PM 0.7736 -143.3195 18° North  Level Estimated
06:35PM 0.8986 -143.2780 18° North  Level Estimated
06:36PM 1.0236 -143.2365 18° North  Level Estimated
06:37PM 1.1486 -143.1949 18° North  Level Estimated
06:38PM 1.2736 -143.1534 18° North  Level Estimated
06:39PM 1.3986 -143.1118 18° North  Level Estimated
06:40PM 1.5236 -143.0703 18° North  Level Estimated
06:41PM 1.6486 -143.0287 18° North  Level Estimated
06:42PM 1.7736 -142.9872 18° North  Level Estimated
06:43PM 1.8986 -142.9456 18° North  Level Estimated
06:44PM 2.0236 -142.9041 18° North  Level Estimated
06:45PM 2.1486 -142.8625 18° North  Level Estimated
06:46PM 2.2736 -142.8209 18° North  Level Estimated
06:47PM 2.3985 -142.7793 18° North  Level Estimated
06:48PM 2.5235 -142.7377 18° North  Level Estimated
06:49PM 2.6485 -142.6961 18° North  Level Estimated
06:50PM 2.7735 -142.6545 18° North  Level Estimated
06:51PM 2.8985 -142.6129 18° North  Level Estimated
06:52PM 3.0235 -142.5713 18° North  Level Estimated
06:53PM 3.1485 -142.5296 18° North  Level Estimated
06:54PM 3.2734 -142.4880 18° North  Level Estimated
06:55PM 3.3984 -142.4463 18° North  Level Estimated
06:56PM 3.5234 -142.4047 18° North  Level Estimated
06:57PM 3.6484 -142.3630 18° North  Level Estimated
06:58PM 3.7734 -142.3213 18° North  Level Estimated
06:59PM 3.8983 -142.2796 18° North  Level Estimated
07:00PM 4.0233 -142.2379 18° North  Level Estimated
07:01PM 4.1483 -142.1961 18° North  Level Estimated
07:02PM 4.2733 -142.1544 18° North  Level Estimated
07:03PM 4.3982 -142.1126 18° North  Level Estimated
07:04PM 4.5232 -142.0709 18° North  Level Estimated
07:05PM 4.6481 -142.0291 18° North  Level Estimated
07:06PM 4.7731 -141.9873 18° North  Level Estimated
07:07PM 4.8980 -141.9455 18° North  Level Estimated
07:08PM 5.0230 -141.9037 18° North  Level Estimated
07:09PM 5.1480 -141.8618 18° North  Level Estimated
07:10PM 5.2729 -141.8199 18° North  Level Estimated
07:11PM 5.3978 -141.7781 18° North  Level Estimated
07:11PM 3.0000 -142.0000 360° North 458 527 41,000  Level Oakland Oceanic (ODAPS)
07:12PM 5.5228 -141.7362 18° North  Level Estimated
07:13PM 5.6477 -141.6942 18° North  Level Estimated
07:14PM 5.7727 -141.6523 18° North  Level Estimated
07:15PM 5.8976 -141.6104 18° North  Level Estimated
07:16PM 6.0225 -141.5684 18° North  Level Estimated
07:17PM 6.1474 -141.5264 18° North  Level Estimated
07:18PM 4.7949 -142.0000 360° North 458 527 41,000  Level FlightAware Transoceanic
07:19PM 4.9231 -142.0000 360° North 458 527 41,000  Level FlightAware Transoceanic
07:20PM 5.0513 -142.0000 360° North 458 527 41,000  Level FlightAware Transoceanic
07:21PM 5.1795 -142.0000 360° North 458 527 41,000  Level FlightAware Transoceanic
07:22PM 5.3077 -142.0000 360° North 458 527 41,000  Level FlightAware Transoceanic
07:23PM 5.4359 -142.0000 360° North 458 527 41,000  Level FlightAware Transoceanic
07:24PM 5.5641 -142.0000 360° North 458 527 41,000  Level FlightAware Transoceanic
07:25PM 5.6923 -142.0000 360° North 458 527 41,000  Level FlightAware Transoceanic
07:26PM 5.8205 -142.0000 360° North 458 527 41,000  Level FlightAware Transoceanic
07:27PM 5.9487 -142.0000 360° North 458 527 41,000  Level FlightAware Transoceanic
07:28PM 6.0769 -142.0000 360° North 458 527 41,000  Level FlightAware Transoceanic
07:29PM 6.2051 -142.0000 360° North 458 527 41,000  Level FlightAware Transoceanic
07:30PM 6.3333 -142.0000 360° North 458 527 41,000  Level FlightAware Transoceanic
07:31PM 6.4615 -142.0000 360° North 458 527 41,000  Level FlightAware Transoceanic
07:32PM 6.5897 -142.0000 360° North 458 527 41,000  Level FlightAware Transoceanic
07:33PM 6.7179 -142.0000 360° North 458 527 41,000  Level FlightAware Transoceanic
07:34PM 6.8461 -142.0000 360° North 458 527 41,000  Level FlightAware Transoceanic
07:35PM 6.9744 -142.0000 360° North 458 527 41,000  Level FlightAware Transoceanic
07:36PM 7.1026 -142.0000 360° North 458 527 41,000  Level FlightAware Transoceanic
07:37PM 7.2308 -142.0000 360° North 458 527 41,000  Level FlightAware Transoceanic
07:38PM 7.3590 -142.0000 360° North 458 527 41,000  Level FlightAware Transoceanic
07:39PM 7.4872 -142.0000 360° North 458 527 41,000  Level FlightAware Transoceanic
07:40PM 7.6154 -142.0000 360° North 458 527 41,000  Level FlightAware Transoceanic
07:41PM 7.7436 -142.0000 360° North 458 527 41,000  Level FlightAware Transoceanic
07:42PM 7.8718 -142.0000 360° North 458 527 41,000  Level FlightAware Transoceanic
07:43PM 8.0000 -142.0000 360° North 458 527 41,000  Level FlightAware Transoceanic
07:44PM 8.1429 -142.0000 360° North 458 527 41,000  Level FlightAware Transoceanic
07:44PM 8.0000 -142.0000 360° North 511 588 41,000  Level Oakland Oceanic (ODAPS)
07:45PM 8.2857 -142.0000 360° North 458 527 41,000  Level FlightAware Transoceanic
07:46PM 8.4286 -142.0000 360° North 458 527 41,000  Level FlightAware Transoceanic
07:47PM 8.5714 -142.0000 360° North 458 527 41,000  Level FlightAware Transoceanic
07:48PM 8.7143 -142.0000 360° North 458 527 41,000  Level FlightAware Transoceanic
07:49PM 8.8571 -142.0000 360° North 458 527 41,000  Level FlightAware Transoceanic
07:50PM 9.0000 -142.0000 360° North 511 588 41,000  Level FlightAware Transoceanic
07:51PM 9.1429 -142.0000 360° North 511 588 41,000  Level FlightAware Transoceanic
07:52PM 9.2857 -142.0000 360° North 511 588 41,000  Level FlightAware Transoceanic
07:53PM 9.4286 -142.0000 360° North 511 588 41,000  Level FlightAware Transoceanic
07:54PM 9.5714 -142.0000 360° North 511 588 41,000  Level FlightAware Transoceanic
07:55PM 9.7143 -142.0000 360° North 511 588 41,000  Level FlightAware Transoceanic
07:56PM 9.8571 -142.0000 360° North 511 588 41,000  Level FlightAware Transoceanic
07:57PM 10.0000 -142.0000 360° North 511 588 41,000  Level FlightAware Transoceanic
07:58PM 10.1364 -142.0000 360° North 511 588 41,000 1,020 Level FlightAware Transoceanic
07:58PM 10.0000 -142.0000 360° North 488 562 43,000  Climbing Oakland Oceanic (ODAPS)
07:59PM 10.2727 -142.0000 360° North 511 588 41,000 -1,860 Descending FlightAware Transoceanic
08:00PM 10.4091 -142.0000 360° North 511 588 41,000  Level FlightAware Transoceanic
08:01PM 10.5455 -142.0000 360° North 511 588 41,000  Level FlightAware Transoceanic
08:02PM 10.6818 -142.0000 360° North 511 588 41,000  Level FlightAware Transoceanic
08:03PM 10.8182 -142.0000 360° North 511 588 41,000  Level FlightAware Transoceanic
08:04PM 10.9545 -142.0000 360° North 511 588 41,000 960 Level FlightAware Transoceanic
08:05PM 11.0909 -142.0000 360° North 488 562 43,000 960 Climbing FlightAware Transoceanic
08:06PM 11.2273 -142.0000 360° North 488 562 43,000  Level FlightAware Transoceanic
08:07PM 11.3636 -142.0000 360° North 488 562 43,000  Level FlightAware Transoceanic
08:08PM 11.5000 -142.0000 360° North 488 562 43,000  Level FlightAware Transoceanic
08:09PM 11.6364 -142.0000 360° North 488 562 43,000  Level FlightAware Transoceanic
08:10PM 11.7727 -142.0000 360° North 488 562 43,000  Level FlightAware Transoceanic
08:11PM 11.9091 -142.0000 360° North 488 562 43,000  Level FlightAware Transoceanic
08:12PM 12.0455 -142.0000 360° North 488 562 43,000  Level FlightAware Transoceanic
08:13PM 12.1818 -142.0000 360° North 488 562 43,000  Level FlightAware Transoceanic
08:14PM 12.3182 -142.0000 360° North 488 562 43,000  Level FlightAware Transoceanic
08:15PM 12.4545 -142.0000 360° North 488 562 43,000  Level FlightAware Transoceanic
08:16PM 12.5909 -142.0000 360° North 488 562 43,000  Level FlightAware Transoceanic
08:17PM 12.7273 -142.0000 360° North 488 562 43,000  Level FlightAware Transoceanic
08:18PM 12.8636 -142.0000 360° North 488 562 43,000  Level FlightAware Transoceanic
08:19PM 13.0000 -142.0000 26° Northeast 488 562 43,000  Level FlightAware Transoceanic
08:20PM 13.1251 -141.9380 26° Northeast 488 562 43,000  Level FlightAware Transoceanic
08:21PM 13.2502 -141.8759 26° Northeast 488 562 43,000  Level FlightAware Transoceanic
08:21PM 13.0000 -142.0000 26° Northeast 498 573 43,000  Level Oakland Oceanic (ODAPS)
08:22PM 13.3753 -141.8138 26° Northeast 488 562 43,000  Level FlightAware Transoceanic
08:23PM 13.5004 -141.7516 26° Northeast 488 562 43,000  Level FlightAware Transoceanic
08:24PM 13.6254 -141.6893 26° Northeast 488 562 43,000  Level FlightAware Transoceanic
08:25PM 13.7505 -141.6270 26° Northeast 488 562 43,000  Level FlightAware Transoceanic
08:26PM 13.8755 -141.5646 26° Northeast 488 562 43,000  Level FlightAware Transoceanic
08:27PM 13.8755 -141.5646 26° Northeast 498 573 43,000  Level FlightAware Transoceanic
08:28PM 14.0005 -141.5022 26° Northeast 498 573 43,000  Level FlightAware Transoceanic
08:29PM 14.1255 -141.4397 26° Northeast 498 573 43,000  Level FlightAware Transoceanic
08:30PM 14.2505 -141.3770 26° Northeast 498 573 43,000  Level FlightAware Transoceanic
08:31PM 14.3754 -141.3144 26° Northeast 498 573 43,000  Level FlightAware Transoceanic
08:32PM 14.5004 -141.2516 26° Northeast 498 573 43,000  Level FlightAware Transoceanic
08:33PM 14.6253 -141.1888 26° Northeast 498 573 43,000  Level FlightAware Transoceanic
08:34PM 14.7502 -141.1260 26° Northeast 498 573 43,000  Level FlightAware Transoceanic
08:35PM 14.8751 -141.0630 26° Northeast 498 573 43,000  Level FlightAware Transoceanic
08:36PM 15.0000 -141.0000 11° North 498 573 43,000  Level FlightAware Transoceanic
08:37PM 15.1352 -140.9737 11° North 498 573 43,000  Level FlightAware Transoceanic
08:38PM 15.2704 -140.9473 11° North 498 573 43,000  Level FlightAware Transoceanic
08:39PM 15.4056 -140.9209 11° North 498 573 43,000  Level FlightAware Transoceanic
08:39PM 15.0000 -141.0000 11° North 455 524 43,000  Level Oakland Oceanic (ODAPS)
08:40PM 15.5408 -140.8944 11° North 498 573 43,000  Level FlightAware Transoceanic
08:41PM 15.6760 -140.8679 11° North 498 573 43,000  Level FlightAware Transoceanic
08:42PM 15.8111 -140.8414 11° North 498 573 43,000  Level FlightAware Transoceanic
08:43PM 15.9463 -140.8149 11° North 498 573 43,000  Level FlightAware Transoceanic
08:44PM 16.0815 -140.7883 11° North 498 573 43,000  Level FlightAware Transoceanic
08:45PM 16.2167 -140.7617 11° North 498 573 43,000  Level FlightAware Transoceanic
08:46PM 16.2505 -140.7550 11° North 455 524 43,000  Level FlightAware Transoceanic
08:47PM 16.3755 -140.7303 11° North 455 524 43,000  Level FlightAware Transoceanic
08:48PM 16.5005 -140.7056 11° North 455 524 43,000  Level FlightAware Transoceanic
08:49PM 16.6255 -140.6809 11° North 455 524 43,000  Level FlightAware Transoceanic
08:50PM 16.7506 -140.6561 11° North 455 524 43,000  Level FlightAware Transoceanic
08:51PM 16.8756 -140.6314 11° North 455 524 43,000  Level FlightAware Transoceanic
08:52PM 17.0006 -140.6065 11° North 455 524 43,000  Level FlightAware Transoceanic
08:53PM 17.1256 -140.5817 11° North 455 524 43,000  Level FlightAware Transoceanic
08:54PM 17.2506 -140.5568 11° North 455 524 43,000  Level FlightAware Transoceanic
08:55PM 17.3756 -140.5318 11° North 455 524 43,000  Level FlightAware Transoceanic
08:56PM 17.5006 -140.5069 11° North 455 524 43,000  Level FlightAware Transoceanic
08:57PM 17.6256 -140.4819 11° North 455 524 43,000  Level FlightAware Transoceanic
08:58PM 17.7506 -140.4569 11° North 455 524 43,000  Level FlightAware Transoceanic
08:59PM 17.8756 -140.4318 11° North 455 524 43,000  Level FlightAware Transoceanic
09:00PM 18.0006 -140.4067 11° North 455 524 43,000  Level FlightAware Transoceanic
09:01PM 18.1256 -140.3815 11° North 455 524 43,000  Level FlightAware Transoceanic
09:02PM 18.2506 -140.3564 11° North 455 524 43,000  Level FlightAware Transoceanic
09:03PM 18.3756 -140.3312 11° North 455 524 43,000  Level FlightAware Transoceanic
09:04PM 18.5005 -140.3059 11° North 455 524 43,000  Level FlightAware Transoceanic
09:05PM 18.6255 -140.2806 11° North 455 524 43,000  Level FlightAware Transoceanic
09:06PM 18.7505 -140.2553 11° North 455 524 43,000  Level FlightAware Transoceanic
09:07PM 18.8755 -140.2300 11° North 455 524 43,000  Level FlightAware Transoceanic
09:08PM 19.0004 -140.2046 11° North 455 524 43,000  Level FlightAware Transoceanic
09:09PM 19.1254 -140.1791 11° North 455 524 43,000  Level FlightAware Transoceanic
09:10PM 19.2503 -140.1537 11° North 455 524 43,000  Level FlightAware Transoceanic
09:11PM 19.3753 -140.1281 11° North 455 524 43,000  Level FlightAware Transoceanic
09:12PM 19.5002 -140.1026 11° North 455 524 43,000  Level FlightAware Transoceanic
09:13PM 19.6252 -140.0770 11° North 455 524 43,000  Level FlightAware Transoceanic
09:14PM 19.7501 -140.0514 11° North 455 524 43,000  Level FlightAware Transoceanic
09:15PM 19.8751 -140.0257 11° North 455 524 43,000  Level FlightAware Transoceanic
09:16PM 20.0000 -140.0000 360° North 455 524 43,000  Level FlightAware Transoceanic
09:17PM 20.1351 -140.0000 360° North 455 524 43,000  Level FlightAware Transoceanic
09:18PM 20.2703 -140.0000 360° North 455 524 43,000  Level FlightAware Transoceanic
09:18PM 20.0000 -140.0000 360° North 471 542 43,000  Level Oakland Oceanic (ODAPS)
09:19PM 20.4054 -140.0000 360° North 455 524 43,000  Level FlightAware Transoceanic
09:20PM 20.5405 -140.0000 360° North 455 524 43,000  Level FlightAware Transoceanic
09:21PM 20.6757 -140.0000 360° North 455 524 43,000  Level FlightAware Transoceanic
09:22PM 20.8108 -140.0000 360° North 455 524 43,000  Level FlightAware Transoceanic
09:23PM 20.9459 -140.0000 360° North 455 524 43,000  Level FlightAware Transoceanic
09:24PM 21.1842 -140.0000 360° North 471 542 43,000  Level FlightAware Transoceanic
09:25PM 21.3158 -140.0000 360° North 471 542 43,000  Level FlightAware Transoceanic
09:26PM 21.4474 -140.0000 360° North 471 542 43,000  Level FlightAware Transoceanic
09:27PM 21.5790 -140.0000 360° North 471 542 43,000  Level FlightAware Transoceanic
09:28PM 21.7105 -140.0000 360° North 471 542 43,000  Level FlightAware Transoceanic
09:29PM 21.8421 -140.0000 360° North 471 542 43,000  Level FlightAware Transoceanic
09:30PM 21.9737 -140.0000 360° North 471 542 43,000  Level FlightAware Transoceanic
09:31PM 22.1053 -140.0000 360° North 471 542 43,000  Level FlightAware Transoceanic
09:32PM 22.2368 -140.0000 360° North 471 542 43,000  Level FlightAware Transoceanic
09:33PM 22.3684 -140.0000 360° North 471 542 43,000  Level FlightAware Transoceanic
09:34PM 22.5000 -140.0000 360° North 471 542 43,000  Level FlightAware Transoceanic
09:35PM 22.6316 -140.0000 360° North 471 542 43,000  Level FlightAware Transoceanic
09:36PM 22.7632 -140.0000 360° North 471 542 43,000  Level FlightAware Transoceanic
09:37PM 22.8947 -140.0000 360° North 471 542 43,000  Level FlightAware Transoceanic
09:38PM 23.0263 -140.0000 360° North 471 542 43,000  Level FlightAware Transoceanic
09:39PM 23.1579 -140.0000 360° North 471 542 43,000  Level FlightAware Transoceanic
09:40PM 23.2895 -140.0000 360° North 471 542 43,000  Level FlightAware Transoceanic
09:41PM 23.4210 -140.0000 360° North 471 542 43,000  Level FlightAware Transoceanic
09:42PM 23.5526 -140.0000 360° North 471 542 43,000  Level FlightAware Transoceanic
09:43PM 23.6842 -140.0000 360° North 471 542 43,000  Level FlightAware Transoceanic
09:44PM 23.8158 -140.0000 360° North 471 542 43,000  Level FlightAware Transoceanic
09:45PM 23.9474 -140.0000 360° North 471 542 43,000  Level FlightAware Transoceanic
09:46PM 24.0790 -140.0000 360° North 471 542 43,000  Level FlightAware Transoceanic
09:47PM 24.2105 -140.0000 360° North 471 542 43,000  Level FlightAware Transoceanic
09:48PM 24.3421 -140.0000 360° North 471 542 43,000  Level FlightAware Transoceanic
09:49PM 24.4737 -140.0000 360° North 471 542 43,000  Level FlightAware Transoceanic
09:50PM 24.6053 -140.0000 360° North 471 542 43,000  Level FlightAware Transoceanic
09:51PM 24.7368 -140.0000 360° North 471 542 43,000  Level FlightAware Transoceanic
09:52PM 24.8684 -140.0000 360° North 471 542 43,000  Level FlightAware Transoceanic
09:53PM 25.0000 -140.0000 360° North 471 542 43,000  Level FlightAware Transoceanic
09:54PM 25.1304 -140.0000 360° North 471 542 43,000  Level FlightAware Transoceanic
09:54PM 25.0000 -140.0000 360° North 467 537 43,000  Level Oakland Oceanic (ODAPS)
09:55PM 25.2609 -140.0000 360° North 471 542 43,000  Level FlightAware Transoceanic
09:56PM 25.3913 -140.0000 360° North 471 542 43,000  Level FlightAware Transoceanic
09:57PM 25.5217 -140.0000 360° North 471 542 43,000  Level FlightAware Transoceanic
09:58PM 25.6522 -140.0000 360° North 471 542 43,000  Level FlightAware Transoceanic
09:59PM 25.7826 -140.0000 360° North 471 542 43,000  Level FlightAware Transoceanic
10:00PM 25.9130 -140.0000 360° North 467 537 43,000  Level FlightAware Transoceanic
10:01PM 26.0435 -140.0000 360° North 467 537 43,000  Level FlightAware Transoceanic
10:02PM 26.1739 -140.0000 360° North 467 537 43,000  Level FlightAware Transoceanic
10:03PM 26.3043 -140.0000 360° North 467 537 43,000  Level FlightAware Transoceanic
10:04PM 26.4348 -140.0000 360° North 467 537 43,000  Level FlightAware Transoceanic
10:05PM 26.5652 -140.0000 360° North 467 537 43,000  Level FlightAware Transoceanic
10:06PM 26.6957 -140.0000 360° North 467 537 43,000  Level FlightAware Transoceanic
10:07PM 26.8261 -140.0000 360° North 467 537 43,000  Level FlightAware Transoceanic
10:08PM 26.9565 -140.0000 360° North 467 537 43,000  Level FlightAware Transoceanic
10:09PM 27.0870 -140.0000 360° North 467 537 43,000  Level FlightAware Transoceanic
10:10PM 27.2174 -140.0000 360° North 467 537 43,000  Level FlightAware Transoceanic
10:11PM 27.3478 -140.0000 360° North 467 537 43,000  Level FlightAware Transoceanic
10:12PM 27.4783 -140.0000 360° North 467 537 43,000  Level FlightAware Transoceanic
10:13PM 27.6087 -140.0000 360° North 467 537 43,000  Level FlightAware Transoceanic
10:14PM 27.7391 -140.0000 360° North 467 537 43,000  Level FlightAware Transoceanic
10:15PM 27.8696 -140.0000 360° North 467 537 43,000  Level FlightAware Transoceanic
10:16PM 28.0000 -140.0000 360° North 467 537 43,000  Level FlightAware Transoceanic
10:17PM 28.1250 -140.0000 360° North 467 537 43,000  Level FlightAware Transoceanic
10:18PM 28.2500 -140.0000 360° North 467 537 43,000  Level FlightAware Transoceanic
10:19PM 28.3750 -140.0000 360° North 467 537 43,000 1,020 Level FlightAware Transoceanic
10:19PM 28.0000 -140.0000 360° North 422 486 45,000  Climbing Oakland Oceanic (ODAPS)
10:20PM 28.5000 -140.0000 360° North 467 537 43,000 -1,860 Descending FlightAware Transoceanic
10:21PM 28.6250 -140.0000 360° North 467 537 43,000  Level FlightAware Transoceanic
10:22PM 28.7500 -140.0000 360° North 467 537 43,000  Level FlightAware Transoceanic
10:23PM 28.8750 -140.0000 360° North 467 537 43,000  Level FlightAware Transoceanic
10:24PM 29.0000 -140.0000 360° North 467 537 43,000  Level FlightAware Transoceanic
10:25PM 29.1250 -140.0000 360° North 467 537 43,000 960 Level FlightAware Transoceanic
10:26PM 29.0588 -140.0000 360° North 422 486 45,000 960 Climbing FlightAware Transoceanic
10:27PM 29.1765 -140.0000 360° North 422 486 45,000  Level FlightAware Transoceanic
10:28PM 29.2941 -140.0000 360° North 422 486 45,000  Level FlightAware Transoceanic
10:29PM 29.4118 -140.0000 360° North 422 486 45,000  Level FlightAware Transoceanic
10:30PM 29.5294 -140.0000 360° North 422 486 45,000  Level FlightAware Transoceanic
10:31PM 29.6471 -140.0000 360° North 422 486 45,000  Level FlightAware Transoceanic
10:32PM 29.7647 -140.0000 360° North 422 486 45,000  Level FlightAware Transoceanic
10:33PM 29.8824 -140.0000 360° North 422 486 45,000  Level FlightAware Transoceanic
10:34PM 30.0000 -140.0000 360° North 422 486 45,000  Level FlightAware Transoceanic
10:35PM 30.1250 -140.0000 360° North 422 486 45,000  Level FlightAware Transoceanic
10:36PM 30.2500 -140.0000 360° North 422 486 45,000  Level FlightAware Transoceanic
10:37PM 30.3750 -140.0000 360° North 422 486 45,000  Level FlightAware Transoceanic
10:38PM 30.5000 -140.0000 360° North 422 486 45,000  Level FlightAware Transoceanic
10:39PM 30.6250 -140.0000 360° North 422 486 45,000  Level FlightAware Transoceanic
10:40PM 30.7500 -140.0000 360° North 422 486 45,000  Level FlightAware Transoceanic
10:40PM 30.0000 -140.0000 360° North 430 495 45,000  Level Oakland Oceanic (ODAPS)
10:41PM 30.8750 -140.0000 360° North 422 486 45,000  Level FlightAware Transoceanic
10:42PM 31.0000 -140.0000 360° North 422 486 45,000  Level FlightAware Transoceanic
10:43PM 31.1250 -140.0000 360° North 422 486 45,000  Level FlightAware Transoceanic
10:44PM 31.2500 -140.0000 360° North 422 486 45,000  Level FlightAware Transoceanic
10:45PM 31.3750 -140.0000 360° North 422 486 45,000  Level FlightAware Transoceanic
10:46PM 31.4400 -140.0000 360° North 430 495 45,000  Level FlightAware Transoceanic
10:47PM 31.5600 -140.0000 360° North 430 495 45,000  Level FlightAware Transoceanic
10:48PM 31.6800 -140.0000 360° North 430 495 45,000  Level FlightAware Transoceanic
10:49PM 31.8000 -140.0000 360° North 430 495 45,000  Level FlightAware Transoceanic
10:50PM 31.9200 -140.0000 360° North 430 495 45,000  Level FlightAware Transoceanic
10:51PM 32.0400 -140.0000 360° North 430 495 45,000  Level FlightAware Transoceanic
10:52PM 32.1600 -140.0000 360° North 430 495 45,000  Level FlightAware Transoceanic
10:53PM 32.2800 -140.0000 360° North 430 495 45,000  Level FlightAware Transoceanic
10:54PM 32.4000 -140.0000 360° North 430 495 45,000  Level FlightAware Transoceanic
10:55PM 32.5200 -140.0000 360° North 430 495 45,000  Level FlightAware Transoceanic
10:56PM 32.6400 -140.0000 360° North 430 495 45,000  Level FlightAware Transoceanic
10:57PM 32.7600 -140.0000 360° North 430 495 45,000  Level FlightAware Transoceanic
10:58PM 32.8800 -140.0000 360° North 430 495 45,000  Level FlightAware Transoceanic
10:59PM 33.0000 -140.0000 360° North 430 495 45,000  Level FlightAware Transoceanic
11:00PM 33.1250 -140.0000 360° North 430 495 45,000  Level FlightAware Transoceanic
11:01PM 33.2500 -140.0000 360° North 430 495 45,000  Level FlightAware Transoceanic
11:02PM 33.3750 -140.0000 360° North 430 495 45,000  Level FlightAware Transoceanic
11:03PM 33.5000 -140.0000 360° North 430 495 45,000  Level FlightAware Transoceanic
11:04PM 33.6250 -140.0000 360° North 430 495 45,000  Level FlightAware Transoceanic
11:04PM 33.0000 -140.0000 360° North 479 551 45,000  Level Oakland Oceanic (ODAPS)
11:05PM 33.7500 -140.0000 360° North 430 495 45,000  Level FlightAware Transoceanic
11:06PM 33.8750 -140.0000 360° North 430 495 45,000  Level FlightAware Transoceanic
11:07PM 34.0000 -140.0000 360° North 430 495 45,000  Level FlightAware Transoceanic
11:08PM 34.1250 -140.0000 360° North 430 495 45,000  Level FlightAware Transoceanic
11:09PM 34.2500 -140.0000 360° North 430 495 45,000  Level FlightAware Transoceanic
11:10PM 34.4667 -140.0000 360° North 479 551 45,000  Level FlightAware Transoceanic
11:11PM 34.6000 -140.0000 360° North 479 551 45,000  Level FlightAware Transoceanic
11:12PM 34.7333 -140.0000 360° North 479 551 45,000  Level FlightAware Transoceanic
11:13PM 34.8667 -140.0000 360° North 479 551 45,000  Level FlightAware Transoceanic
11:14PM 35.0000 -140.0000 360° North 479 551 45,000  Level FlightAware Transoceanic
11:15PM 35.1250 -140.0000 360° North 479 551 45,000  Level FlightAware Transoceanic
11:16PM 35.2500 -140.0000 360° North 479 551 45,000  Level FlightAware Transoceanic
11:17PM 35.3750 -140.0000 360° North 479 551 45,000  Level FlightAware Transoceanic
11:18PM 35.5000 -140.0000 360° North 479 551 45,000  Level FlightAware Transoceanic
11:19PM 35.6250 -140.0000 360° North 479 551 45,000  Level FlightAware Transoceanic
11:20PM 35.7500 -140.0000 360° North 479 551 45,000  Level FlightAware Transoceanic
11:21PM 35.8750 -140.0000 360° North 479 551 45,000  Level FlightAware Transoceanic
11:22PM 36.0000 -140.0000 360° North 479 551 45,000  Level FlightAware Transoceanic
11:23PM 36.1250 -140.0000 360° North 479 551 45,000  Level FlightAware Transoceanic
11:23PM 35.0000 -140.0000 360° North 422 486 45,000  Level Oakland Oceanic (ODAPS)
11:24PM 36.2500 -140.0000 360° North 479 551 45,000  Level FlightAware Transoceanic
11:25PM 36.3750 -140.0000 360° North 479 551 45,000  Level FlightAware Transoceanic
11:26PM 36.5000 -140.0000 360° North 479 551 45,000  Level FlightAware Transoceanic
11:27PM 36.6250 -140.0000 360° North 479 551 45,000  Level FlightAware Transoceanic
11:28PM 36.7500 -140.0000 360° North 479 551 45,000  Level FlightAware Transoceanic
11:29PM 36.8750 -140.0000 360° North 479 551 45,000  Level FlightAware Transoceanic
11:30PM 36.8824 -140.0000 360° North 422 486 45,000  Level FlightAware Transoceanic
11:31PM 37.0000 -140.0000 27° Northeast 422 486 45,000  Level FlightAware Transoceanic
11:32PM 37.1126 -139.9274 27° Northeast 422 486 45,000  Level FlightAware Transoceanic
11:33PM 37.2251 -139.8546 27° Northeast 422 486 45,000  Level FlightAware Transoceanic
11:34PM 37.3376 -139.7816 27° Northeast 422 486 45,000  Level FlightAware Transoceanic
11:35PM 37.4500 -139.7083 27° Northeast 422 486 45,000  Level FlightAware Transoceanic
11:36PM 37.5624 -139.6348 27° Northeast 422 486 45,000  Level FlightAware Transoceanic
11:36PM 37.0000 -140.0000 27° Northeast 454 522 45,000  Level Oakland Oceanic (ODAPS)
11:37PM 37.6747 -139.5611 27° Northeast 422 486 45,000  Level FlightAware Transoceanic
11:38PM 37.7870 -139.4872 28° Northeast 422 486 45,000  Level FlightAware Transoceanic
11:39PM 37.8992 -139.4131 28° Northeast 422 486 45,000  Level FlightAware Transoceanic
11:40PM 38.0114 -139.3387 28° Northeast 422 486 45,000  Level FlightAware Transoceanic
11:41PM 38.1236 -139.2641 28° Northeast 422 486 45,000  Level FlightAware Transoceanic
11:42PM 38.2357 -139.1893 28° Northeast 422 486 45,000  Level FlightAware Transoceanic
11:43PM 38.3478 -139.1142 28° Northeast 454 522 45,000  Level FlightAware Transoceanic
11:44PM 38.4598 -139.0389 28° Northeast 454 522 45,000  Level FlightAware Transoceanic
11:45PM 38.5717 -138.9634 28° Northeast 454 522 45,000  Level FlightAware Transoceanic
11:46PM 38.6836 -138.8876 28° Northeast 454 522 45,000  Level FlightAware Transoceanic
11:47PM 38.7955 -138.8116 28° Northeast 454 522 45,000  Level FlightAware Transoceanic
11:48PM 38.9073 -138.7354 28° Northeast 454 522 45,000  Level FlightAware Transoceanic
11:49PM 39.0191 -138.6589 28° Northeast 454 522 45,000  Level FlightAware Transoceanic
11:50PM 39.1308 -138.5822 28° Northeast 454 522 45,000  Level FlightAware Transoceanic
11:51PM 39.2425 -138.5052 28° Northeast 454 522 45,000  Level FlightAware Transoceanic
11:52PM 39.3541 -138.4280 28° Northeast 454 522 45,000  Level FlightAware Transoceanic
11:53PM 39.4656 -138.3505 28° Northeast 454 522 45,000  Level FlightAware Transoceanic
11:54PM 39.5771 -138.2728 28° Northeast 454 522 45,000  Level FlightAware Transoceanic
11:55PM 39.6886 -138.1949 28° Northeast 454 522 45,000  Level FlightAware Transoceanic
11:56PM 39.8000 -138.1167 52° Northeast 454 522 45,000  Level FlightAware Transoceanic
11:57PM 39.8846 -137.9758 52° Northeast 454 522 45,000  Level FlightAware Transoceanic
11:57PM 39.8000 -138.1167 52° Northeast 487 560 45,000  Level Oakland Oceanic (ODAPS)
11:58PM 39.9691 -137.8346 52° Northeast 454 522 45,000  Level FlightAware Transoceanic
11:59PM 40.0533 -137.6930 52° Northeast 454 522 45,000  Level FlightAware Transoceanic
12:00AM 40.1374 -137.5511 52° Northeast 454 522 45,000  Level FlightAware Transoceanic
12:01AM 40.2213 -137.4088 52° Northeast 454 522 45,000  Level FlightAware Transoceanic
12:02AM 40.3051 -137.2662 52° Northeast 454 522 45,000  Level FlightAware Transoceanic
12:03AM 40.3780 -137.1414 53° Northeast 487 560 45,000  Level FlightAware Transoceanic
12:04AM 40.4599 -137.0007 53° Northeast 487 560 45,000  Level FlightAware Transoceanic
12:05AM 40.5417 -136.8597 53° Northeast 487 560 45,000  Level FlightAware Transoceanic
12:06AM 40.6232 -136.7183 53° Northeast 487 560 45,000  Level FlightAware Transoceanic
12:07AM 40.7046 -136.5766 53° Northeast 487 560 45,000  Level FlightAware Transoceanic
12:08AM 40.7858 -136.4345 53° Northeast 487 560 45,000  Level FlightAware Transoceanic
12:09AM 40.8669 -136.2921 53° Northeast 487 560 45,000  Level FlightAware Transoceanic
12:10AM 40.9477 -136.1494 53° Northeast 487 560 45,000  Level FlightAware Transoceanic
12:11AM 41.0284 -136.0063 53° Northeast 487 560 45,000  Level FlightAware Transoceanic
12:12AM 41.1089 -135.8628 53° Northeast 487 560 45,000  Level FlightAware Transoceanic
12:13AM 41.1893 -135.7190 53° Northeast 487 560 45,000  Level FlightAware Transoceanic
12:14AM 41.2694 -135.5748 54° Northeast 487 560 45,000  Level FlightAware Transoceanic
12:15AM 41.3494 -135.4303 54° Northeast 487 560 45,000  Level FlightAware Transoceanic
12:16AM 41.4292 -135.2854 54° Northeast 487 560 45,000  Level FlightAware Transoceanic
12:17AM 41.5088 -135.1402 54° Northeast 487 560 45,000  Level FlightAware Transoceanic
12:18AM 41.5882 -134.9946 54° Northeast 487 560 45,000  Level FlightAware Transoceanic
12:19AM 41.6675 -134.8487 54° Northeast 487 560 45,000  Level FlightAware Transoceanic
12:20AM 41.7465 -134.7024 54° Northeast 487 560 45,000  Level FlightAware Transoceanic
12:21AM 41.8254 -134.5557 54° Northeast 487 560 45,000  Level FlightAware Transoceanic
12:22AM 41.9041 -134.4087 54° Northeast 487 560 45,000  Level FlightAware Transoceanic
12:23AM 41.9826 -134.2613 54° Northeast 487 560 45,000  Level FlightAware Transoceanic
12:24AM 42.0609 -134.1135 55° Northeast 487 560 45,000  Level FlightAware Transoceanic
12:25AM 42.1390 -133.9654 55° Northeast 487 560 45,000  Level FlightAware Transoceanic
12:26AM 42.2169 -133.8169 55° Northeast 487 560 45,000  Level FlightAware Transoceanic
12:27AM 42.2946 -133.6681 55° Northeast 487 560 45,000  Level FlightAware Transoceanic
12:28AM 42.3722 -133.5189 55° Northeast 487 560 45,000  Level FlightAware Transoceanic
12:29AM 42.4495 -133.3693 55° Northeast 487 560 45,000  Level FlightAware Transoceanic
12:30AM 42.5267 -133.2193 55° Northeast 487 560 45,000  Level FlightAware Transoceanic
12:31AM 42.6036 -133.0690 55° Northeast 487 560 45,000  Level FlightAware Transoceanic
12:32AM 42.6804 -132.9183 55° Northeast 487 560 45,000  Level FlightAware Transoceanic
12:33AM 42.7570 -132.7672 55° Northeast 487 560 45,000  Level FlightAware Transoceanic
12:34AM 42.8333 -132.6158 56° Northeast 487 560 45,000  Level FlightAware Transoceanic
12:35AM 42.9095 -132.4640 56° Northeast 487 560 45,000  Level FlightAware Transoceanic
12:36AM 42.9854 -132.3118 56° Northeast 487 560 45,000  Level FlightAware Transoceanic
12:37AM 43.0612 -132.1592 56° Northeast 487 560 45,000  Level FlightAware Transoceanic
12:38AM 43.1367 -132.0063 56° Northeast 487 560 45,000  Level FlightAware Transoceanic
12:39AM 43.2121 -131.8530 56° Northeast 487 560 45,000  Level FlightAware Transoceanic
12:40AM 43.2873 -131.6993 56° Northeast 487 560 45,000  Level FlightAware Transoceanic
12:41AM 43.3622 -131.5452 56° Northeast 487 560 45,000  Level FlightAware Transoceanic
12:42AM 43.4369 -131.3907 56° Northeast 487 560 45,000  Level FlightAware Transoceanic
12:43AM 43.5114 -131.2359 57° Northeast 487 560 45,000  Level FlightAware Transoceanic
12:44AM 43.5858 -131.0807 57° Northeast 487 560 45,000  Level FlightAware Transoceanic
12:45AM 43.6599 -130.9251 57° Northeast 487 560 45,000  Level FlightAware Transoceanic
12:46AM 43.7337 -130.7691 57° Northeast 487 560 45,000  Level FlightAware Transoceanic
12:47AM 43.8074 -130.6127 57° Northeast 487 560 45,000  Level FlightAware Transoceanic
12:48AM 43.8809 -130.4559 57° Northeast 487 560 45,000  Level FlightAware Transoceanic
12:49AM 43.9542 -130.2988 57° Northeast 487 560 45,000  Level FlightAware Transoceanic
12:50AM 44.0272 -130.1413 57° Northeast 487 560 45,000  Level FlightAware Transoceanic
12:51AM 44.1000 -129.9833 58° Northeast 487 560 45,000  Level FlightAware Transoceanic
12:52AM 44.1760 -129.8153 58° Northeast 487 560 45,000  Level FlightAware Transoceanic
12:53AM 44.2517 -129.6469 58° Northeast 487 560 45,000  Level FlightAware Transoceanic
12:54AM 44.3272 -129.4780 58° Northeast 487 560 45,000  Level FlightAware Transoceanic
12:55AM 44.4024 -129.3087 58° Northeast 487 560 45,000  Level FlightAware Transoceanic
12:56AM 44.4774 -129.1390 58° Northeast 487 560 45,000  Level FlightAware Transoceanic
12:57AM 44.5521 -128.9689 58° Northeast 487 560 45,000  Level FlightAware Transoceanic
12:58AM 44.6266 -128.7982 59° Northeast 487 560 45,000  Level FlightAware Transoceanic
12:58AM 44.1000 -129.9833 58° Northeast 515 593 45,000  Level Oakland Oceanic (ODAPS)
12:59AM 44.7008 -128.6272 59° Northeast 487 560 45,000  Level FlightAware Transoceanic
01:00AM 44.7748 -128.4557 59° Northeast 487 560 45,000  Level FlightAware Transoceanic
01:01AM 44.8485 -128.2838 59° Northeast 487 560 45,000  Level FlightAware Transoceanic
01:02AM 44.9219 -128.1115 59° Northeast 487 560 45,000  Level FlightAware Transoceanic
01:03AM 44.9951 -127.9387 59° Northeast 487 560 45,000  Level FlightAware Transoceanic
01:03AM 45.1000 -127.7158 50° Northeast 520 598 45,000  Level Seattle Center
01:04AM 45.1407 -127.5917 59° Northeast 515 593 45,000  Level FlightAware Transoceanic
01:04AM 45.1731 -127.5419 59° Northeast 520 598 45,000  Level Seattle Center
01:05AM 45.2131 -127.4176 60° Northeast 515 593 45,000  Level FlightAware Transoceanic
01:05AM 45.2408 -127.3678 61° Northeast 508 585 45,000  Level Seattle Center
01:06AM 45.2852 -127.2430 60° Northeast 515 593 45,000  Level FlightAware Transoceanic
01:06AM 45.3119 -127.1928 60° Northeast 513 590 45,000  Level Seattle Center
01:07AM 45.3571 -127.0680 60° Northeast 515 593 45,000  Level FlightAware Transoceanic
01:07AM 45.3897 -127.0161 58° Northeast 522 601 45,000  Level Seattle Center
01:08AM 45.4287 -126.8926 60° Northeast 515 593 45,000  Level FlightAware Transoceanic
01:08AM 45.4606 -126.8414 60° Northeast 519 597 45,000  Level Seattle Center
01:09AM 45.5000 -126.7167 50° Northeast 515 593 45,000  Level FlightAware Transoceanic
01:09AM 45.5375 -126.6711 57° Northeast 515 593 45,000  Level Seattle Center
01:10AM 45.6239 -126.5089 53° Northeast 511 588 45,000  Level Seattle Center
01:11AM 45.6889 -126.3331 62° Northeast 512 589 45,000  Level Seattle Center
01:12AM 45.7581 -126.1581 60° Northeast 509 586 45,000 -300 Level Seattle Center
01:13AM 45.8264 -125.9869 60° Northeast 497 572 44,500 -900 Descending Seattle Center
01:14AM 45.8936 -125.8125 61° Northeast 498 573 43,300 -1,620 Descending Seattle Center
01:15AM 45.9642 -125.6333 60° Northeast 511 588 41,300 -1,920 Descending Seattle Center
01:16AM 46.0319 -125.4553 61° Northeast 510 587 39,400 -1,980 Descending Seattle Center
01:17AM 46.1006 -125.2758 61° Northeast 511 588 37,400 -2,040 Descending Seattle Center
01:18AM 46.1700 -125.0936 61° Northeast 516 594 35,400 -2,040 Descending Seattle Center
01:19AM 46.2417 -124.9069 61° Northeast 527 606 33,400 -2,280 Descending Seattle Center
01:20AM 46.3275 -124.6811 61° Northeast 533 613 30,900 -2,220 Descending Seattle Center
01:21AM 46.3972 -124.4942 62° Northeast 530 610 28,900 -1,920 Descending Seattle Center
01:22AM 46.4583 -124.3292 62° Northeast 530 610 27,100 -1,860 Descending Seattle Center
01:23AM 46.5258 -124.1461 62° Northeast 520 598 25,200 -1,920 Descending Seattle Center
01:25AM 46.5906 -123.9664 62° Northeast 507 583 23,300 -2,040 Descending Seattle Center
01:26AM 46.6633 -123.7683 62° Northeast 492 566 21,200 -1,980 Descending Seattle Center
01:27AM 46.7242 -123.5983 62° Northeast 483 556 19,400 -1,920 Descending Seattle Center
01:27AM 46.7694 -123.4719 62° Northeast 468 539 17,900 -1,740 Descending Seattle Center
01:29AM 46.8383 -123.2728 63° Northeast 450 518 16,000 -1,620 Descending Seattle Center
01:30AM 46.8953 -123.1133 62° Northeast 414 476 14,300 -1,500 Descending Seattle Center
01:31AM 46.9408 -122.9858 62° Northeast 355 409 13,000 -1,380 Descending Seattle Center
01:32AM 46.9825 -122.8658 63° Northeast 331 381 11,500 -1,440 Descending Seattle Center
01:33AM 47.0239 -122.7458 63° Northeast 310 357 10,100 -900 Descending Seattle Center
01:34AM 47.0578 -122.6450 64° Northeast 280 322 9,700 -840 Descending Seattle Center
01:35AM 47.0903 -122.5508 63° Northeast 262 302 8,500 -1,200 Descending Seattle Center
01:36AM 47.1219 -122.4581 63° Northeast 256 295 7,400 -1,200 Descending Seattle Center
01:37AM 47.1597 -122.3764 56° Northeast 244 281 6,200 -1,380 Descending Seattle Center
01:38AM 47.2036 -122.3031 49° Northeast 240 276 4,700 -1,560 Descending Seattle Center
01:39AM 47.2617 -122.2483 33° Northeast 229 264 3,100 -1,140 Descending Seattle Center
01:40AM 47.3072 -122.2119 28° Northeast 187 215 2,500 -480 Descending Seattle Center
01:41AM 47.3547 -122.2119 360° North 174 200 2,200 -180 Descending Seattle Center
01:42AM 47.4028 -122.2122 360° North 173 199 2,200 -120 Level Seattle Center
01:43AM 47.4394 -122.2269 345° North 139 160 2,000 -540 Descending Seattle Center
01:44AM 47.4700 -122.2522 331° Northwest 128 147 1,200 -780 Descending Seattle Center
01:45AM 47.5014 -122.2794 330° Northwest 124 143 500 -420 Descending Seattle Center
01:47AM 47.5331 -122.3042 332° Northwest 53 61 100 -240 Descending Seattle Center